createdAt,value
2023-05-13T00:01:25.864Z,14.95
2023-05-13T00:03:54.078Z,12.80
2023-05-13T00:06:22.291Z,17.45
2023-05-13T00:08:50.456Z,15.55
2023-05-13T00:11:18.636Z,14.18
2023-05-13T00:13:48.295Z,16.55
2023-05-13T00:16:16.649Z,14.18
2023-05-13T00:18:44.870Z,13.77
2023-05-13T00:21:13.204Z,14.98
2023-05-13T00:23:41.939Z,18.50
2023-05-13T00:26:10.098Z,13.40
2023-05-13T00:28:38.290Z,14.10
2023-05-13T00:31:07.993Z,14.45
2023-05-13T00:33:36.330Z,14.32
2023-05-13T00:36:04.701Z,15.25
2023-05-13T00:38:32.981Z,15.20
2023-05-13T00:41:01.220Z,15.82
2023-05-13T00:43:29.441Z,14.88
2023-05-13T00:45:58.246Z,15.45
2023-05-13T00:48:28.164Z,17.00
2023-05-13T00:50:56.801Z,14.70
2023-05-13T00:53:25.117Z,15.05
2023-05-13T00:55:53.323Z,17.52
2023-05-13T00:58:21.477Z,13.88
2023-05-13T01:00:56.755Z,17.10
2023-05-13T01:03:34.695Z,17.42
2023-05-13T01:06:10.074Z,15.20
2023-05-13T01:08:44.526Z,16.67
2023-05-13T01:11:18.543Z,17.13
2023-05-13T01:13:49.352Z,16.77
2023-05-13T01:16:23.296Z,17.55
2023-05-13T01:19:03.485Z,19.80
2023-05-13T01:21:36.977Z,18.02
2023-05-13T01:24:05.690Z,16.30
2023-05-13T01:26:33.779Z,16.83
2023-05-13T01:29:02.075Z,19.02
2023-05-13T01:31:31.125Z,15.27
2023-05-13T01:33:59.500Z,18.98
2023-05-13T01:36:30.852Z,18.52
2023-05-13T01:39:02.456Z,19.02
2023-05-13T01:41:32.073Z,17.45
2023-05-13T01:44:00.405Z,18.92
2023-05-13T01:46:29.322Z,19.25
2023-05-13T01:48:57.468Z,19.02
2023-05-13T01:51:25.608Z,19.08
2023-05-13T01:53:53.705Z,17.13
2023-05-13T01:56:23.774Z,19.13
2023-05-13T01:58:52.427Z,22.92
2023-05-13T02:01:22.462Z,18.88
2023-05-13T02:03:51.145Z,18.30
2023-05-13T02:06:20.839Z,22.63
2023-05-13T02:08:49.070Z,23.38
2023-05-13T02:11:17.190Z,25.25
2023-05-13T02:13:46.720Z,20.50
2023-05-13T02:16:16.244Z,20.73
2023-05-13T02:18:44.517Z,21.63
2023-05-13T02:21:12.749Z,26.95
2023-05-13T02:23:40.801Z,23.30
2023-05-13T02:26:08.964Z,22.80
2023-05-13T02:28:37.764Z,28.77
2023-05-13T02:31:07.653Z,27.63
2023-05-13T02:33:35.686Z,33.53
2023-05-13T02:36:03.925Z,28.02
2023-05-13T02:38:32.055Z,32.35
2023-05-13T02:41:00.492Z,31.10
2023-05-13T02:43:29.954Z,33.92
2023-05-13T02:46:03.810Z,32.20
2023-05-13T02:48:35.036Z,34.72
2023-05-13T02:51:03.297Z,36.92
2023-05-13T02:53:31.434Z,35.60
2023-05-13T02:56:04.071Z,36.63
2023-05-13T02:58:32.284Z,37.75
2023-05-13T03:01:00.760Z,44.03
2023-05-13T03:03:29.222Z,43.78
2023-05-13T03:05:59.194Z,41.40
2023-05-13T03:08:27.468Z,36.97
2023-05-13T03:10:55.633Z,42.88
2023-05-13T03:13:23.720Z,40.47
2023-05-13T03:15:51.753Z,39.75
2023-05-13T03:18:19.873Z,38.80
2023-05-13T03:20:48.122Z,39.30
2023-05-13T03:23:17.580Z,39.63
2023-05-13T03:25:48.301Z,38.80
2023-05-13T03:28:16.453Z,35.55
2023-05-13T03:30:45.599Z,35.78
2023-05-13T03:33:17.454Z,36.67
2023-05-13T03:35:48.509Z,35.67
2023-05-13T03:38:19.340Z,34.45
2023-05-13T03:40:50.608Z,37.88
2023-05-13T03:43:18.867Z,34.60
2023-05-13T03:45:52.840Z,36.70
2023-05-13T03:48:23.198Z,37.70
2023-05-13T03:50:53.092Z,32.03
2023-05-13T03:53:22.992Z,33.97
2023-05-13T03:55:51.449Z,34.90
2023-05-13T03:58:21.704Z,31.35
2023-05-13T04:00:50.361Z,29.73
2023-05-13T04:03:19.353Z,33.38
2023-05-13T04:05:47.934Z,31.95
2023-05-13T04:08:16.372Z,29.55
2023-05-13T04:10:46.053Z,32.00
2023-05-13T04:13:14.137Z,31.77
2023-05-13T04:15:42.261Z,32.53
2023-05-13T04:18:10.481Z,31.48
2023-05-13T04:20:39.587Z,32.17
2023-05-13T04:23:08.152Z,30.77
2023-05-13T04:25:37.819Z,33.22
2023-05-13T04:28:07.447Z,31.77
2023-05-13T04:30:42.195Z,34.30
2023-05-13T04:33:10.671Z,33.38
2023-05-13T04:35:41.172Z,31.95
2023-05-13T04:38:09.776Z,35.53
2023-05-13T04:40:37.929Z,31.85
2023-05-13T04:43:11.457Z,33.85
2023-05-13T04:45:53.026Z,36.65
2023-05-13T04:48:21.155Z,31.52
2023-05-13T04:50:49.325Z,32.45
2023-05-13T04:53:18.463Z,33.80
2023-05-13T04:55:48.193Z,36.42
2023-05-13T04:58:17.851Z,30.92
2023-05-13T05:00:46.051Z,30.02
2023-05-13T05:03:14.450Z,29.38
2023-05-13T05:05:42.848Z,29.42
2023-05-13T05:08:12.596Z,28.80
2023-05-13T05:10:41.239Z,27.95
2023-05-13T05:13:10.704Z,28.23
2023-05-13T05:15:41.725Z,29.15
2023-05-13T05:18:10.557Z,29.20
2023-05-13T05:20:43.120Z,29.17
2023-05-13T05:23:16.329Z,26.67
2023-05-13T05:25:44.770Z,29.15
2023-05-13T05:28:12.841Z,31.45
2023-05-13T05:30:45.088Z,27.58
2023-05-13T05:33:23.534Z,26.73
2023-05-13T05:35:52.356Z,25.30
2023-05-13T05:38:25.205Z,26.25
2023-05-13T05:40:54.214Z,24.55
2023-05-13T05:43:22.301Z,23.50
2023-05-13T05:45:54.105Z,29.65
2023-05-13T05:48:23.215Z,24.65
2023-05-13T05:50:51.577Z,23.52
2023-05-13T05:53:26.537Z,26.33
2023-05-13T05:55:55.286Z,25.55
2023-05-13T05:58:23.755Z,21.98
2023-05-13T06:00:54.432Z,23.05
2023-05-13T06:03:22.721Z,23.00
2023-05-13T06:05:50.784Z,21.70
2023-05-13T06:08:20.293Z,22.02
2023-05-13T06:10:48.394Z,18.85
2023-05-13T06:13:17.235Z,20.75
2023-05-13T06:15:45.669Z,19.98
2023-05-13T06:18:15.179Z,23.65
2023-05-13T06:20:43.259Z,21.42
2023-05-13T06:23:11.795Z,16.35
2023-05-13T06:25:39.834Z,20.02
2023-05-13T06:28:08.624Z,21.27
2023-05-13T06:30:38.060Z,19.83
2023-05-13T06:33:06.285Z,19.83
2023-05-13T06:35:35.758Z,20.27
2023-05-13T06:38:06.124Z,21.48
2023-05-13T06:40:34.639Z,21.88
2023-05-13T06:43:03.212Z,20.38
2023-05-13T06:45:33.012Z,20.08
2023-05-13T06:48:01.498Z,22.30
2023-05-13T06:50:29.788Z,21.70
2023-05-13T06:52:59.308Z,17.08
2023-05-13T06:55:27.367Z,20.27
2023-05-13T06:57:55.375Z,19.95
2023-05-13T07:00:24.086Z,18.55
2023-05-13T07:02:52.309Z,17.15
2023-05-13T07:05:20.876Z,19.80
2023-05-13T07:07:53.520Z,18.50
2023-05-13T07:10:23.256Z,20.92
2023-05-13T07:12:51.770Z,17.58
2023-05-13T07:15:20.130Z,19.60
2023-05-13T07:17:48.637Z,19.88
2023-05-13T07:20:19.611Z,15.05
2023-05-13T07:22:47.825Z,18.80
2023-05-13T07:25:16.188Z,19.05
2023-05-13T07:27:45.826Z,16.83
2023-05-13T07:30:14.721Z,16.67
2023-05-13T07:32:42.842Z,18.13
2023-05-13T07:35:11.438Z,15.43
2023-05-13T07:37:39.530Z,16.83
2023-05-13T07:40:08.895Z,19.55
2023-05-13T07:42:37.801Z,15.52
2023-05-13T07:45:08.436Z,17.20
2023-05-13T07:47:36.641Z,16.38
2023-05-13T07:50:05.056Z,15.35
2023-05-13T07:52:33.588Z,17.10
2023-05-13T07:55:01.879Z,15.20
2023-05-13T07:57:29.911Z,15.05
2023-05-13T07:59:57.994Z,17.60
2023-05-13T08:02:28.284Z,15.32
2023-05-13T08:04:56.411Z,15.73
2023-05-13T08:07:24.496Z,15.90
2023-05-13T08:09:52.546Z,15.60
2023-05-13T08:12:20.700Z,15.45
2023-05-13T08:14:49.163Z,17.85
2023-05-13T08:17:18.314Z,14.63
2023-05-13T08:19:47.824Z,14.43
2023-05-13T08:22:15.891Z,13.50
2023-05-13T08:24:44.100Z,16.10
2023-05-13T08:27:12.784Z,16.23
2023-05-13T08:29:40.841Z,14.52
2023-05-13T08:32:09.151Z,14.30
2023-05-13T08:34:37.397Z,15.80
2023-05-13T08:37:06.934Z,14.32
2023-05-13T08:39:35.409Z,13.57
2023-05-13T08:42:05.236Z,15.02
2023-05-13T08:44:33.865Z,14.25
2023-05-13T08:47:09.945Z,17.15
2023-05-13T08:49:39.168Z,16.25
2023-05-13T08:52:09.650Z,15.65
2023-05-13T08:54:39.404Z,15.73
2023-05-13T08:57:07.680Z,18.10
2023-05-13T08:59:36.179Z,13.30
2023-05-13T09:02:06.241Z,14.65
2023-05-13T09:04:37.669Z,16.02
2023-05-13T09:07:07.034Z,14.05
2023-05-13T09:09:36.727Z,15.90
2023-05-13T09:12:05.969Z,12.98
2023-05-13T09:14:34.285Z,13.30
2023-05-13T09:17:02.938Z,14.20
2023-05-13T09:19:31.410Z,15.50
2023-05-13T09:21:59.889Z,14.50
2023-05-13T09:24:27.964Z,11.10
2023-05-13T09:26:57.465Z,13.90
2023-05-13T09:29:26.884Z,12.75
2023-05-13T09:31:56.318Z,11.50
2023-05-13T09:34:29.499Z,11.68
2023-05-13T09:37:05.624Z,17.27
2023-05-13T09:39:35.758Z,12.65
2023-05-13T09:42:05.831Z,14.63
2023-05-13T09:44:34.214Z,9.95
2023-05-13T09:47:03.501Z,10.32
2023-05-13T09:49:32.893Z,8.85
2023-05-13T09:52:00.938Z,13.52
2023-05-13T09:54:35.712Z,11.25
2023-05-13T09:57:06.058Z,10.80
2023-05-13T09:59:34.415Z,10.43
2023-05-13T10:02:05.348Z,10.63
2023-05-13T10:04:33.618Z,13.75
2023-05-13T10:07:05.143Z,12.32
2023-05-13T10:09:37.061Z,9.02
2023-05-13T10:12:09.684Z,9.30
2023-05-13T10:14:38.452Z,9.57
2023-05-13T10:17:09.275Z,8.32
2023-05-13T10:19:38.221Z,12.48
2023-05-13T10:22:07.689Z,9.50
2023-05-13T10:24:38.549Z,11.55
2023-05-13T10:27:09.138Z,14.60
2023-05-13T10:29:40.531Z,11.32
2023-05-13T10:32:10.390Z,9.50
2023-05-13T10:34:40.361Z,11.20
2023-05-13T10:37:28.955Z,11.77
2023-05-13T10:40:21.692Z,8.82
2023-05-13T10:42:57.489Z,6.45
2023-05-13T10:45:28.323Z,8.23
2023-05-13T10:47:57.351Z,10.20
2023-05-13T10:50:26.229Z,13.13
2023-05-13T10:52:58.229Z,10.13
2023-05-13T10:55:28.172Z,12.63
2023-05-13T10:58:10.128Z,8.10
2023-05-13T11:00:39.050Z,10.73
2023-05-13T11:03:14.511Z,10.68
2023-05-13T11:05:44.739Z,11.32
2023-05-13T11:08:12.997Z,7.25
2023-05-13T11:10:42.166Z,8.48
2023-05-13T11:13:24.807Z,9.93
2023-05-13T11:15:54.633Z,12.63
2023-05-13T11:18:31.115Z,9.93
2023-05-13T11:21:05.547Z,11.82
2023-05-13T11:23:35.878Z,8.02
2023-05-13T11:26:16.987Z,11.48
2023-05-13T11:28:57.712Z,12.27
2023-05-13T11:31:27.568Z,9.73
2023-05-13T11:34:12.009Z,9.38
2023-05-13T11:36:41.767Z,10.07
2023-05-13T11:39:14.875Z,10.05
2023-05-13T11:41:45.032Z,11.95
2023-05-13T11:44:16.169Z,9.30
2023-05-13T11:46:51.914Z,9.90
2023-05-13T11:49:33.596Z,8.65
2023-05-13T11:52:01.988Z,8.10
2023-05-13T11:54:30.332Z,10.27
2023-05-13T11:56:58.482Z,9.68
2023-05-13T11:59:33.363Z,9.85
2023-05-13T12:02:07.563Z,11.55
2023-05-13T12:04:35.669Z,15.30
2023-05-13T12:07:04.611Z,10.85
2023-05-13T12:09:32.683Z,9.98
2023-05-13T12:12:01.041Z,9.27
2023-05-13T12:14:30.867Z,8.77
2023-05-13T12:16:59.198Z,10.65
2023-05-13T12:19:27.319Z,12.95
2023-05-13T12:21:55.346Z,9.35
2023-05-13T12:24:23.585Z,7.53
2023-05-13T12:26:51.743Z,10.23
2023-05-13T12:29:19.871Z,11.95
2023-05-13T12:32:07.335Z,9.75
2023-05-13T12:34:36.218Z,11.13
2023-05-13T12:37:12.365Z,9.57
2023-05-13T12:39:41.588Z,10.35
2023-05-13T12:42:16.103Z,12.18
2023-05-13T12:44:45.770Z,9.73
2023-05-13T12:47:15.817Z,9.05
2023-05-13T12:49:53.741Z,12.02
2023-05-13T12:52:22.440Z,9.23
2023-05-13T12:54:50.831Z,11.77
2023-05-13T12:57:20.578Z,11.43
2023-05-13T12:59:48.772Z,11.65
2023-05-13T13:02:18.233Z,11.57
2023-05-13T13:04:46.478Z,11.07
2023-05-13T13:07:14.759Z,9.70
2023-05-13T13:09:42.935Z,12.30
2023-05-13T13:12:10.995Z,9.82
2023-05-13T13:14:39.054Z,10.88
2023-05-13T13:17:07.257Z,8.02
2023-05-13T13:19:36.676Z,12.43
2023-05-13T13:22:05.078Z,9.60
2023-05-13T13:24:33.223Z,10.73
2023-05-13T13:27:01.253Z,9.63
2023-05-13T13:29:29.308Z,9.93
2023-05-13T13:31:57.470Z,9.77
2023-05-13T13:34:25.613Z,9.80
2023-05-13T13:36:55.036Z,11.13
2023-05-13T13:39:23.094Z,8.30
2023-05-13T13:41:51.145Z,10.90
2023-05-13T13:44:19.169Z,11.88
2023-05-13T13:46:47.469Z,10.75
2023-05-13T13:49:23.094Z,10.35
2023-05-13T13:51:52.142Z,11.13
2023-05-13T13:54:21.742Z,9.90
2023-05-13T13:56:49.761Z,10.20
2023-05-13T13:59:19.282Z,10.07
2023-05-13T14:01:47.776Z,11.60
2023-05-13T14:04:17.354Z,14.00
2023-05-13T14:06:46.265Z,12.95
2023-05-13T14:09:14.266Z,10.15
2023-05-13T14:11:43.682Z,12.23
2023-05-13T14:14:11.715Z,11.05
2023-05-13T14:16:39.799Z,11.85
2023-05-13T14:19:08.072Z,8.55
2023-05-13T14:21:36.416Z,13.20
2023-05-13T14:24:04.576Z,8.80
2023-05-13T14:26:32.605Z,10.00
2023-05-13T14:29:02.025Z,11.63
2023-05-13T14:31:30.543Z,14.52
2023-05-13T14:33:58.632Z,13.63
2023-05-13T14:36:27.548Z,11.02
2023-05-13T14:38:55.699Z,13.68
2023-05-13T14:41:24.262Z,13.73
2023-05-13T14:43:52.671Z,10.02
2023-05-13T14:46:22.167Z,10.25
2023-05-13T14:48:50.309Z,10.85
2023-05-13T14:51:18.327Z,12.15
2023-05-13T14:53:46.378Z,9.90
2023-05-13T14:56:14.482Z,10.75
2023-05-13T14:58:42.711Z,10.32
2023-05-13T15:01:10.832Z,13.30
2023-05-13T15:03:40.292Z,11.70
2023-05-13T15:06:09.390Z,12.73
2023-05-13T15:08:37.714Z,10.18
2023-05-13T15:11:06.215Z,9.73
2023-05-13T15:13:35.776Z,9.45
2023-05-13T15:16:03.864Z,10.93
2023-05-13T15:18:32.293Z,12.18
2023-05-13T15:21:01.736Z,10.70
2023-05-13T15:23:29.873Z,12.85
2023-05-13T15:25:58.195Z,12.30
2023-05-13T15:28:26.240Z,11.57
2023-05-13T15:30:54.289Z,10.85
2023-05-13T15:33:22.413Z,11.93
2023-05-13T15:35:50.987Z,11.77
2023-05-13T15:38:20.398Z,10.27
2023-05-13T15:40:48.459Z,9.77
2023-05-13T15:43:16.478Z,10.05
2023-05-13T15:45:44.596Z,12.38
2023-05-13T15:48:12.717Z,10.90
2023-05-13T15:50:41.027Z,12.75
2023-05-13T15:53:09.254Z,10.60
2023-05-13T15:55:39.501Z,11.68
2023-05-13T15:58:07.772Z,10.25
2023-05-13T16:00:35.753Z,12.02
2023-05-13T16:03:03.958Z,9.52
2023-05-13T16:05:32.025Z,12.98
2023-05-13T16:08:00.167Z,8.77
2023-05-13T16:10:28.164Z,9.98
2023-05-13T16:12:57.647Z,12.50
2023-05-13T16:15:25.693Z,13.98
2023-05-13T16:17:53.768Z,11.43
2023-05-13T16:20:22.159Z,11.25
2023-05-13T16:22:50.411Z,9.73
2023-05-13T16:25:18.486Z,10.05
2023-05-13T16:27:46.501Z,10.45
2023-05-13T16:30:16.321Z,12.85
2023-05-13T16:32:44.519Z,11.13
2023-05-13T16:35:12.726Z,17.33
2023-05-13T16:37:40.826Z,9.38
2023-05-13T16:40:10.058Z,14.20
2023-05-13T16:42:38.245Z,10.57
2023-05-13T16:45:07.849Z,9.77
2023-05-13T16:47:37.369Z,11.43
2023-05-13T16:50:06.656Z,10.18
2023-05-13T16:52:34.677Z,12.60
2023-05-13T16:55:03.066Z,9.38
2023-05-13T16:57:31.183Z,10.23
2023-05-13T16:59:59.207Z,11.60
2023-05-13T17:02:27.548Z,11.43
2023-05-13T17:04:56.987Z,11.82
2023-05-13T17:07:25.009Z,12.13
2023-05-13T17:09:53.097Z,18.48
2023-05-13T17:12:21.108Z,11.32
2023-05-13T17:14:49.210Z,8.23
2023-05-13T17:17:17.250Z,12.13
2023-05-13T17:19:45.335Z,11.20
2023-05-13T17:22:14.776Z,9.05
2023-05-13T17:24:43.092Z,10.68
2023-05-13T17:27:11.370Z,9.90
2023-05-13T17:29:39.383Z,9.00
2023-05-13T17:32:08.110Z,10.70
2023-05-13T17:34:36.169Z,12.85
2023-05-13T17:37:04.239Z,11.77
2023-05-13T17:39:33.662Z,11.40
2023-05-13T17:42:01.760Z,14.25
2023-05-13T17:44:30.001Z,11.35
2023-05-13T17:46:58.133Z,8.52
2023-05-13T17:49:26.216Z,9.30
2023-05-13T17:51:54.281Z,12.52
2023-05-13T17:54:22.314Z,9.20
2023-05-13T17:56:51.739Z,9.18
2023-05-13T17:59:19.786Z,12.60
2023-05-13T18:01:47.875Z,11.15
2023-05-13T18:04:16.134Z,9.55
2023-05-13T18:06:44.168Z,9.02
2023-05-13T18:09:12.352Z,9.02
2023-05-13T18:11:40.476Z,9.77
2023-05-13T18:14:09.876Z,12.40
2023-05-13T18:16:37.999Z,10.05
2023-05-13T18:19:06.855Z,8.85
2023-05-13T18:21:34.947Z,11.70
2023-05-13T18:24:03.007Z,11.43
2023-05-13T18:26:31.035Z,9.98
2023-05-13T18:28:59.080Z,13.00
2023-05-13T18:31:28.499Z,11.68
2023-05-13T18:33:56.577Z,17.10
2023-05-13T18:36:24.592Z,13.52
2023-05-13T18:38:52.646Z,15.57
2023-05-13T18:41:21.424Z,12.43
2023-05-13T18:43:49.726Z,11.05
2023-05-13T18:46:17.849Z,17.48
2023-05-13T18:48:47.304Z,14.00
2023-05-13T18:51:16.479Z,14.13
2023-05-13T18:53:44.998Z,14.07
2023-05-13T18:56:13.100Z,15.07
2023-05-13T18:58:41.155Z,17.92
2023-05-13T19:01:09.587Z,13.25
2023-05-13T19:03:38.082Z,12.80
2023-05-13T19:06:08.220Z,13.75
2023-05-13T19:08:36.486Z,14.73
2023-05-13T19:11:04.817Z,17.13
2023-05-13T19:13:45.699Z,14.38
2023-05-13T19:16:15.582Z,17.90
2023-05-13T19:18:44.027Z,17.75
2023-05-13T19:21:13.678Z,14.93
2023-05-13T19:23:42.024Z,15.80
2023-05-13T19:26:10.411Z,20.20
2023-05-13T19:28:39.449Z,14.63
2023-05-13T19:31:07.868Z,19.40
2023-05-13T19:33:37.067Z,12.88
2023-05-13T19:36:05.695Z,15.25
2023-05-13T19:38:36.542Z,20.98
2023-05-13T19:41:04.830Z,18.70
2023-05-13T19:43:33.162Z,18.52
2023-05-13T19:46:01.505Z,19.13
2023-05-13T19:48:30.665Z,19.85
2023-05-13T19:50:59.066Z,22.65
2023-05-13T19:53:27.428Z,18.00
2023-05-13T19:55:57.515Z,20.02
2023-05-13T19:58:25.869Z,18.27
2023-05-13T20:00:55.227Z,15.68
2023-05-13T20:03:23.634Z,15.45
2023-05-13T20:05:53.128Z,18.95
2023-05-13T20:08:21.869Z,17.55
2023-05-13T20:10:50.210Z,19.58
2023-05-13T20:13:20.499Z,20.45
2023-05-13T20:15:48.774Z,15.90
2023-05-13T20:18:17.386Z,19.67
2023-05-13T20:20:47.060Z,18.40
2023-05-13T20:23:15.434Z,15.07
2023-05-13T20:25:43.791Z,15.48
2023-05-13T20:28:12.098Z,16.75
2023-05-13T20:30:43.684Z,19.08
2023-05-13T20:33:12.110Z,18.67
2023-05-13T20:35:40.961Z,16.88
2023-05-13T20:38:09.264Z,16.48
2023-05-13T20:40:37.773Z,20.38
2023-05-13T20:43:07.789Z,19.88
2023-05-13T20:45:39.408Z,17.98
2023-05-13T20:48:09.865Z,17.33
2023-05-13T20:50:38.488Z,15.68
2023-05-13T20:53:07.137Z,25.38
2023-05-13T20:55:35.506Z,20.60
2023-05-13T20:58:03.809Z,20.55
2023-05-13T21:00:32.172Z,16.25
2023-05-13T21:03:01.264Z,19.90
2023-05-13T21:05:31.735Z,20.17
2023-05-13T21:08:00.002Z,21.35
2023-05-13T21:10:28.354Z,23.42
2023-05-13T21:12:56.600Z,20.30
2023-05-13T21:15:24.871Z,21.38
2023-05-13T21:17:53.290Z,18.77
2023-05-13T21:20:24.969Z,19.52
2023-05-13T21:22:54.893Z,18.23
2023-05-13T21:25:23.284Z,20.95
2023-05-13T21:27:51.578Z,20.95
2023-05-13T21:30:19.859Z,20.23
2023-05-13T21:32:48.195Z,19.48
2023-05-13T21:35:16.691Z,21.77
2023-05-13T21:37:47.183Z,18.33
2023-05-13T21:40:17.561Z,25.20
2023-05-13T21:42:45.992Z,23.02
2023-05-13T21:45:15.155Z,20.65
2023-05-13T21:47:43.544Z,20.77
2023-05-13T21:50:12.660Z,23.48
2023-05-13T21:52:40.933Z,18.77
2023-05-13T21:55:10.019Z,22.85
2023-05-13T21:57:39.760Z,22.92
2023-05-13T22:00:15.076Z,18.67
2023-05-13T22:02:46.510Z,22.88
2023-05-13T22:05:15.259Z,18.88
2023-05-13T22:07:43.706Z,27.13
2023-05-13T22:10:12.628Z,23.42
2023-05-13T22:12:42.325Z,18.48
2023-05-13T22:15:11.947Z,31.83
2023-05-13T22:17:40.439Z,28.42
2023-05-13T22:20:09.893Z,22.00
2023-05-13T22:22:38.245Z,27.73
2023-05-13T22:25:06.997Z,24.02
2023-05-13T22:27:35.273Z,24.58
2023-05-13T22:30:05.403Z,21.65
2023-05-13T22:32:34.416Z,23.60
2023-05-13T22:35:02.762Z,27.65
2023-05-13T22:37:31.235Z,22.55
2023-05-13T22:39:59.488Z,22.63
2023-05-13T22:42:27.817Z,22.98
2023-05-13T22:44:56.073Z,26.50
2023-05-13T22:47:25.863Z,25.70
2023-05-13T22:49:54.333Z,20.02
2023-05-13T22:52:22.624Z,26.45
2023-05-13T22:54:50.914Z,25.25
2023-05-13T22:57:19.167Z,26.75
2023-05-13T22:59:47.434Z,24.83
2023-05-13T23:02:15.776Z,23.23
2023-05-13T23:04:45.497Z,25.00
2023-05-13T23:07:13.812Z,22.65
2023-05-13T23:09:42.063Z,26.63
2023-05-13T23:12:10.549Z,30.58
2023-05-13T23:14:38.778Z,28.67
2023-05-13T23:17:08.095Z,30.83
2023-05-13T23:19:38.130Z,26.30
2023-05-13T23:22:07.796Z,23.73
2023-05-13T23:24:36.090Z,25.60
2023-05-13T23:27:04.775Z,24.83
2023-05-13T23:29:33.054Z,24.02
2023-05-13T23:32:01.633Z,26.13
2023-05-13T23:34:30.768Z,32.35
2023-05-13T23:36:59.055Z,29.05
2023-05-13T23:39:28.786Z,31.50
2023-05-13T23:41:57.063Z,28.85
2023-05-13T23:44:25.886Z,31.13
2023-05-13T23:46:54.138Z,25.85
2023-05-13T23:49:22.660Z,25.20
2023-05-13T23:51:51.061Z,27.13
2023-05-13T23:54:19.348Z,32.92
2023-05-13T23:56:49.191Z,27.50
2023-05-13T23:59:17.474Z,30.65
